createdAt,value
2024-05-09T00:00:00.542Z,82.07
2024-05-09T00:01:00.653Z,82.90
2024-05-09T00:02:00.527Z,82.79
2024-05-09T00:03:01.241Z,82.48
2024-05-09T00:04:00.599Z,80.84
2024-05-09T00:05:00.586Z,80.33
2024-05-09T00:06:00.684Z,80.43
2024-05-09T00:07:00.442Z,80.53
2024-05-09T00:07:59.891Z,81.46
2024-05-09T00:09:00.411Z,81.56
2024-05-09T00:10:00.470Z,81.46
2024-05-09T00:11:01.123Z,81.56
2024-05-09T00:12:00.046Z,81.35
2024-05-09T00:13:00.359Z,81.97
2024-05-09T00:13:59.628Z,82.93
2024-05-09T00:14:59.595Z,81.60
2024-05-09T00:15:59.588Z,80.47
2024-05-09T00:16:59.614Z,80.16
2024-05-09T00:17:59.666Z,79.23
2024-05-09T00:18:59.640Z,78.82
2024-05-09T00:20:00.340Z,78.92
2024-05-09T00:20:59.651Z,78.61
2024-05-09T00:21:59.583Z,78.61
2024-05-09T00:22:59.570Z,78.61
2024-05-09T00:23:59.665Z,78.72
2024-05-09T00:24:59.577Z,79.03
2024-05-09T00:26:00.220Z,79.13
2024-05-09T00:27:00.176Z,81.39
2024-05-09T00:28:00.933Z,80.57
2024-05-09T00:29:00.197Z,80.30
2024-05-09T00:29:59.585Z,79.88
2024-05-09T00:30:59.575Z,78.96
2024-05-09T00:31:59.437Z,78.65
2024-05-09T00:32:59.711Z,79.37
2024-05-09T00:34:00.233Z,80.19
2024-05-09T00:34:59.593Z,80.19
2024-05-09T00:36:00.048Z,81.02
2024-05-09T00:37:00.051Z,80.71
2024-05-09T00:38:00.205Z,82.87
2024-05-09T00:39:00.018Z,81.02
2024-05-09T00:39:59.970Z,80.30
2024-05-09T00:40:59.255Z,80.09
2024-05-09T00:41:59.236Z,79.37
2024-05-09T00:42:59.216Z,79.88
2024-05-09T00:43:59.237Z,79.88
2024-05-09T00:44:59.196Z,80.61
2024-05-09T00:45:59.160Z,80.81
2024-05-09T00:46:59.926Z,81.43
2024-05-09T00:47:59.450Z,82.77
2024-05-09T00:48:59.216Z,83.28
2024-05-09T00:49:59.151Z,82.97
2024-05-09T00:50:59.101Z,83.18
2024-05-09T00:51:59.083Z,83.63
2024-05-09T00:52:59.123Z,84.97
2024-05-09T00:53:59.077Z,84.56
2024-05-09T00:54:59.141Z,85.59
2024-05-09T00:55:59.064Z,83.22
2024-05-09T00:56:59.145Z,83.32
2024-05-09T00:57:58.999Z,83.12
2024-05-09T00:58:59.034Z,85.49
2024-05-09T00:59:59.764Z,84.05
2024-05-09T01:00:58.985Z,83.56
2024-05-09T01:01:59.007Z,83.98
2024-05-09T01:02:59.082Z,83.56
2024-05-09T01:03:59.274Z,82.64
2024-05-09T01:04:59.769Z,81.09
2024-05-09T01:05:59.751Z,81.51
2024-05-09T01:07:00.833Z,80.79
2024-05-09T01:07:59.668Z,79.86
2024-05-09T01:08:58.843Z,79.86
2024-05-09T01:09:59.590Z,79.44
2024-05-09T01:10:58.889Z,78.62
2024-05-09T01:11:59.624Z,79.86
2024-05-09T01:12:58.839Z,79.75
2024-05-09T01:13:58.810Z,80.58
2024-05-09T01:14:58.808Z,80.68
2024-05-09T01:15:58.768Z,81.51
2024-05-09T01:16:58.822Z,82.12
2024-05-09T01:17:59.325Z,81.81
2024-05-09T01:18:58.809Z,80.27
2024-05-09T01:19:59.498Z,80.16
2024-05-09T01:20:58.700Z,80.58
2024-05-09T01:21:58.701Z,80.58
2024-05-09T01:22:58.976Z,80.89
2024-05-09T01:23:58.788Z,80.79
2024-05-09T01:24:58.642Z,81.34
2024-05-09T01:25:58.962Z,80.20
2024-05-09T01:26:58.611Z,78.55
2024-05-09T01:27:58.597Z,77.11
2024-05-09T01:28:58.982Z,75.84
2024-05-09T01:29:59.978Z,75.84
2024-05-09T01:30:59.972Z,76.87
2024-05-09T01:31:59.242Z,76.97
2024-05-09T01:32:58.684Z,77.08
2024-05-09T01:33:58.744Z,78.31
2024-05-09T01:34:58.666Z,77.90
2024-05-09T01:35:59.221Z,78.34
2024-05-09T01:36:58.605Z,78.14
2024-05-09T01:37:59.299Z,78.76
2024-05-09T01:38:58.856Z,79.48
2024-05-09T01:39:58.858Z,80.62
2024-05-09T01:40:58.484Z,82.68
2024-05-09T01:41:59.194Z,81.23
2024-05-09T01:43:00.342Z,82.26
2024-05-09T01:43:59.158Z,82.16
2024-05-09T01:44:58.357Z,83.29
2024-05-09T01:45:58.355Z,83.85
2024-05-09T01:46:58.464Z,82.20
2024-05-09T01:47:59.176Z,80.86
2024-05-09T01:48:58.464Z,80.55
2024-05-09T01:49:58.341Z,80.14
2024-05-09T01:50:58.319Z,79.52
2024-05-09T01:51:58.258Z,79.52
2024-05-09T01:52:58.266Z,80.96
2024-05-09T01:53:58.238Z,80.55
2024-05-09T01:55:00.095Z,81.07
2024-05-09T01:55:58.242Z,80.86
2024-05-09T01:56:58.235Z,80.34
2024-05-09T01:57:58.217Z,80.04
2024-05-09T01:58:58.207Z,81.37
2024-05-09T01:59:58.165Z,80.86
2024-05-09T02:00:59.578Z,79.41
2024-05-09T02:01:59.024Z,77.87
2024-05-09T02:02:58.246Z,77.15
2024-05-09T02:03:58.370Z,77.56
2024-05-09T02:04:58.163Z,77.97
2024-05-09T02:05:58.106Z,78.59
2024-05-09T02:06:58.060Z,78.69
2024-05-09T02:07:58.092Z,78.59
2024-05-09T02:08:58.051Z,77.76
2024-05-09T02:09:58.227Z,77.25
2024-05-09T02:10:58.364Z,77.66
2024-05-09T02:11:59.526Z,79.83
2024-05-09T02:12:59.391Z,79.11
2024-05-09T02:13:58.038Z,79.35
2024-05-09T02:14:58.702Z,78.31
2024-05-09T02:15:59.350Z,77.70
2024-05-09T02:16:58.860Z,76.87
2024-05-09T02:17:58.748Z,76.98
2024-05-09T02:18:58.738Z,76.77
2024-05-09T02:19:58.687Z,76.46
2024-05-09T02:20:58.701Z,76.15
2024-05-09T02:21:58.625Z,76.98
2024-05-09T02:22:57.890Z,79.35
2024-05-09T02:23:57.867Z,78.21
2024-05-09T02:24:58.605Z,81.21
2024-05-09T02:25:57.859Z,80.69
2024-05-09T02:26:58.560Z,79.76
2024-05-09T02:27:58.526Z,77.91
2024-05-09T02:28:59.265Z,75.95
2024-05-09T02:29:58.525Z,75.63
2024-05-09T02:30:58.516Z,74.60
2024-05-09T02:31:58.520Z,76.15
2024-05-09T02:32:58.714Z,76.87
2024-05-09T02:33:58.635Z,78.01
2024-05-09T02:34:58.477Z,78.21
2024-05-09T02:35:58.461Z,77.39
2024-05-09T02:36:58.437Z,76.25
2024-05-09T02:37:58.442Z,75.95
2024-05-09T02:38:58.194Z,76.67
2024-05-09T02:39:58.397Z,76.87
2024-05-09T02:40:58.415Z,78.56
2024-05-09T02:41:58.373Z,78.35
2024-05-09T02:42:58.336Z,78.45
2024-05-09T02:43:59.048Z,77.73
2024-05-09T02:44:58.334Z,75.98
2024-05-09T02:45:58.306Z,73.68
2024-05-09T02:46:58.340Z,72.54
2024-05-09T02:47:58.839Z,73.16
2024-05-09T02:48:58.364Z,74.60
2024-05-09T02:49:58.298Z,75.43
2024-05-09T02:50:58.312Z,76.04
2024-05-09T02:51:58.216Z,76.46
2024-05-09T02:52:58.205Z,76.04
2024-05-09T02:53:58.266Z,76.67
2024-05-09T02:54:58.183Z,77.28
2024-05-09T02:55:58.240Z,78.21
2024-05-09T02:56:58.844Z,78.05
2024-05-09T02:57:58.168Z,78.56
2024-05-09T02:58:58.164Z,79.80
2024-05-09T02:59:58.128Z,80.00
2024-05-09T03:00:58.138Z,82.38
2024-05-09T03:01:58.132Z,80.32
2024-05-09T03:02:59.441Z,80.62
2024-05-09T03:03:59.402Z,80.52
2024-05-09T03:04:58.208Z,80.46
2024-05-09T03:05:58.690Z,81.38
2024-05-09T03:06:58.031Z,80.04
2024-05-09T03:07:58.054Z,80.15
2024-05-09T03:08:58.015Z,81.28
2024-05-09T03:09:58.034Z,81.70
2024-05-09T03:10:58.020Z,83.76
2024-05-09T03:11:58.058Z,83.25
2024-05-09T03:12:57.969Z,81.38
2024-05-09T03:13:57.960Z,80.97
2024-05-09T03:14:57.977Z,80.56
2024-05-09T03:15:59.120Z,79.01
2024-05-09T03:16:57.932Z,78.28
2024-05-09T03:17:57.966Z,76.01
2024-05-09T03:18:57.914Z,75.60
2024-05-09T03:19:57.887Z,75.60
2024-05-09T03:20:57.901Z,75.81
2024-05-09T03:21:57.848Z,76.22
2024-05-09T03:22:57.889Z,76.43
2024-05-09T03:23:57.796Z,76.01
2024-05-09T03:24:57.799Z,75.81
2024-05-09T03:25:58.496Z,76.22
2024-05-09T03:26:57.772Z,76.32
2024-05-09T03:27:57.753Z,77.46
2024-05-09T03:28:57.766Z,76.64
2024-05-09T03:29:57.735Z,77.87
2024-05-09T03:30:57.715Z,78.91
2024-05-09T03:31:57.758Z,77.87
2024-05-09T03:32:57.787Z,77.56
2024-05-09T03:33:57.792Z,77.36
2024-05-09T03:34:57.706Z,77.87
2024-05-09T03:35:57.638Z,78.59
2024-05-09T03:36:57.622Z,78.91
2024-05-09T03:37:57.645Z,78.01
2024-05-09T03:38:57.616Z,80.29
2024-05-09T03:39:58.260Z,82.87
2024-05-09T03:40:58.812Z,81.42
2024-05-09T03:41:57.570Z,80.08
2024-05-09T03:42:58.187Z,79.56
2024-05-09T03:43:57.578Z,79.15
2024-05-09T03:44:57.499Z,78.84
2024-05-09T03:45:57.508Z,80.49
2024-05-09T03:46:57.545Z,79.36
2024-05-09T03:47:57.701Z,80.39
2024-05-09T03:48:57.484Z,79.15
2024-05-09T03:49:57.520Z,78.22
2024-05-09T03:50:57.463Z,76.77
2024-05-09T03:51:58.065Z,76.77
2024-05-09T03:52:57.431Z,75.63
2024-05-09T03:53:57.367Z,76.05
2024-05-09T03:54:57.463Z,77.29
2024-05-09T03:55:57.379Z,76.77
2024-05-09T03:56:57.352Z,76.15
2024-05-09T03:57:57.339Z,76.77
2024-05-09T03:58:57.367Z,77.91
2024-05-09T03:59:57.314Z,77.70
2024-05-09T04:00:57.353Z,78.01
2024-05-09T04:01:57.455Z,78.01
2024-05-09T04:02:57.373Z,78.01
2024-05-09T04:03:57.260Z,77.91
2024-05-09T04:04:57.274Z,76.05
2024-05-09T04:05:57.231Z,75.84
2024-05-09T04:06:57.215Z,76.77
2024-05-09T04:07:57.950Z,79.46
2024-05-09T04:08:57.160Z,79.25
2024-05-09T04:09:57.210Z,78.32
2024-05-09T04:10:57.174Z,78.74
2024-05-09T04:11:58.519Z,78.53
2024-05-09T04:12:57.149Z,80.39
2024-05-09T04:13:57.166Z,79.77
2024-05-09T04:14:57.109Z,79.87
2024-05-09T04:15:57.132Z,78.53
2024-05-09T04:16:57.757Z,79.15
2024-05-09T04:17:57.044Z,79.25
2024-05-09T04:18:57.122Z,78.28
2024-05-09T04:19:58.242Z,77.67
2024-05-09T04:20:58.242Z,76.01
2024-05-09T04:21:57.010Z,75.19
2024-05-09T04:22:57.032Z,74.36
2024-05-09T04:23:57.034Z,74.36
2024-05-09T04:24:56.975Z,74.22
2024-05-09T04:25:57.007Z,74.22
2024-05-09T04:26:56.987Z,75.36
2024-05-09T04:27:56.932Z,75.57
2024-05-09T04:28:57.625Z,75.77
2024-05-09T04:29:56.901Z,75.77
2024-05-09T04:30:56.899Z,75.63
2024-05-09T04:31:57.671Z,76.87
2024-05-09T04:32:57.037Z,77.80
2024-05-09T04:33:56.974Z,78.01
2024-05-09T04:34:56.991Z,78.11
2024-05-09T04:35:56.830Z,78.52
2024-05-09T04:36:58.020Z,79.86
2024-05-09T04:37:56.848Z,80.28
2024-05-09T04:38:56.778Z,81.21
2024-05-09T04:39:56.770Z,82.75
2024-05-09T04:40:56.801Z,82.96
2024-05-09T04:41:56.744Z,83.54
2024-05-09T04:42:56.748Z,84.78
2024-05-09T04:43:56.741Z,85.81
2024-05-09T04:44:58.720Z,86.63
2024-05-09T04:45:56.687Z,88.70
2024-05-09T04:46:56.738Z,89.79
2024-05-09T04:47:56.930Z,90.41
2024-05-09T04:48:57.979Z,92.06
2024-05-09T04:49:57.308Z,92.88
2024-05-09T04:50:56.647Z,93.35
2024-05-09T04:51:56.612Z,92.53
2024-05-09T04:52:56.646Z,93.21
2024-05-09T04:53:56.556Z,94.03
2024-05-09T04:54:58.507Z,94.24
2024-05-09T04:55:57.347Z,96.15
2024-05-09T04:56:56.543Z,97.28
2024-05-09T04:57:56.536Z,99.04
2024-05-09T04:58:56.518Z,99.99
2024-05-09T04:59:56.500Z,99.60
2024-05-09T05:00:57.153Z,99.99
2024-05-09T05:01:56.638Z,99.99
2024-05-09T05:02:56.569Z,99.99
2024-05-09T05:03:56.658Z,99.99
2024-05-09T05:04:56.558Z,99.99
2024-05-09T05:05:56.471Z,99.46
2024-05-09T05:06:59.744Z,99.97
2024-05-09T05:07:56.408Z,99.99
2024-05-09T05:08:56.369Z,99.99
2024-05-09T05:09:56.379Z,99.99
2024-05-09T05:10:56.444Z,99.99
2024-05-09T05:11:56.392Z,99.99
2024-05-09T05:12:56.994Z,99.99
2024-05-09T05:13:57.034Z,99.99
2024-05-09T05:14:56.314Z,99.99
2024-05-09T05:15:58.115Z,99.99
2024-05-09T05:16:56.353Z,99.99
2024-05-09T05:17:57.126Z,99.99
2024-05-09T05:18:56.273Z,99.99
2024-05-09T05:19:56.334Z,99.99
2024-05-09T05:20:56.488Z,99.99
2024-05-09T05:21:56.229Z,99.99
2024-05-09T05:22:56.212Z,99.99
2024-05-09T05:23:56.149Z,99.99
2024-05-09T05:24:56.872Z,99.99
2024-05-09T05:25:56.278Z,99.99
2024-05-09T05:26:56.161Z,99.99
2024-05-09T05:27:56.146Z,99.99
2024-05-09T05:28:56.823Z,99.99
2024-05-09T05:29:56.112Z,99.99
2024-05-09T05:30:56.779Z,99.99
2024-05-09T05:31:56.161Z,99.31
2024-05-09T05:32:55.650Z,97.66
2024-05-09T05:33:55.324Z,97.15
2024-05-09T05:34:56.076Z,96.80
2024-05-09T05:35:56.018Z,95.05
2024-05-09T05:36:57.185Z,94.64
2024-05-09T05:37:56.088Z,94.02
2024-05-09T05:38:56.052Z,94.29
2024-05-09T05:39:55.987Z,95.21
2024-05-09T05:40:56.167Z,93.98
2024-05-09T05:41:55.926Z,94.29
2024-05-09T05:42:55.903Z,94.45
2024-05-09T05:43:55.957Z,94.34
2024-05-09T05:44:55.902Z,93.93
2024-05-09T05:45:55.915Z,93.42
2024-05-09T05:46:55.878Z,93.63
2024-05-09T05:47:56.102Z,93.48
2024-05-09T05:48:56.043Z,93.17
2024-05-09T05:49:55.843Z,93.07
2024-05-09T05:50:55.996Z,92.35
2024-05-09T05:51:55.816Z,91.90
2024-05-09T05:52:55.803Z,91.69
2024-05-09T05:53:55.770Z,90.56
2024-05-09T05:54:55.772Z,86.42
2024-05-09T05:55:55.773Z,83.25
2024-05-09T05:56:55.710Z,83.10
2024-05-09T05:57:55.727Z,83.00
2024-05-09T05:58:55.448Z,83.06
2024-05-09T05:59:55.672Z,85.42
2024-05-09T06:00:55.691Z,85.69
2024-05-09T06:01:55.684Z,85.79
2024-05-09T06:02:55.717Z,86.10
2024-05-09T06:03:55.676Z,87.49
2024-05-09T06:04:55.707Z,90.05
2024-05-09T06:05:55.647Z,90.97
2024-05-09T06:06:55.610Z,93.38
2024-05-09T06:07:55.760Z,94.20
2024-05-09T06:08:55.609Z,95.28
2024-05-09T06:09:55.549Z,97.53
2024-05-09T06:10:55.688Z,97.94
2024-05-09T06:11:55.622Z,98.30
2024-05-09T06:12:55.502Z,97.49
2024-05-09T06:13:55.531Z,99.52
2024-05-09T06:14:55.458Z,99.99
2024-05-09T06:15:55.457Z,99.18
2024-05-09T06:16:58.054Z,99.27
2024-05-09T06:17:55.575Z,99.99
2024-05-09T06:18:55.535Z,99.48
2024-05-09T06:19:55.463Z,99.99
2024-05-09T06:20:55.484Z,99.99
2024-05-09T06:21:55.393Z,99.99
2024-05-09T06:22:55.405Z,99.99
2024-05-09T06:23:55.353Z,99.99
2024-05-09T06:24:55.319Z,99.99
2024-05-09T06:25:55.388Z,99.99
2024-05-09T06:26:55.314Z,99.99
2024-05-09T06:27:55.305Z,99.99
2024-05-09T06:28:55.316Z,99.99
2024-05-09T06:29:55.245Z,99.99
2024-05-09T06:30:55.269Z,96.93
2024-05-09T06:31:58.577Z,86.04
2024-05-09T06:32:55.341Z,79.67
2024-05-09T06:33:55.327Z,75.90
2024-05-09T06:34:55.219Z,71.26
2024-05-09T06:35:55.187Z,69.25
2024-05-09T06:36:55.195Z,68.88
2024-05-09T06:37:55.203Z,68.49
2024-05-09T06:38:55.158Z,67.65
2024-05-09T06:39:55.131Z,67.78
2024-05-09T06:40:55.169Z,66.14
2024-05-09T06:41:55.128Z,65.54
2024-05-09T06:42:55.105Z,65.44
2024-05-09T06:43:55.100Z,66.05
2024-05-09T06:44:56.291Z,64.04
2024-05-09T06:45:55.074Z,63.47
2024-05-09T06:46:58.102Z,63.67
2024-05-09T06:47:55.136Z,64.84
2024-05-09T06:48:55.127Z,64.31
2024-05-09T06:49:55.083Z,64.11
2024-05-09T06:50:55.052Z,62.67
2024-05-09T06:51:54.991Z,65.17
2024-05-09T06:52:54.980Z,63.93
2024-05-09T06:53:54.916Z,64.87
2024-05-09T06:54:54.960Z,65.80
2024-05-09T06:55:54.988Z,65.07
2024-05-09T06:56:54.920Z,64.01
2024-05-09T06:57:54.891Z,62.64
2024-05-09T06:58:54.924Z,63.73
2024-05-09T06:59:54.889Z,64.40
2024-05-09T07:00:54.901Z,63.67
2024-05-09T07:01:54.874Z,61.71
2024-05-09T07:02:55.735Z,62.04
2024-05-09T07:03:56.120Z,62.27
2024-05-09T07:04:54.888Z,62.77
2024-05-09T07:05:56.003Z,61.81
2024-05-09T07:06:54.781Z,63.24
2024-05-09T07:07:56.016Z,62.07
2024-05-09T07:08:54.821Z,63.10
2024-05-09T07:09:54.733Z,64.01
2024-05-09T07:10:54.792Z,62.54
2024-05-09T07:11:54.763Z,62.14
2024-05-09T07:12:54.661Z,62.44
2024-05-09T07:13:54.693Z,62.55
2024-05-09T07:14:54.670Z,60.02
2024-05-09T07:15:54.670Z,60.05
2024-05-09T07:16:54.738Z,60.35
2024-05-09T07:17:54.767Z,60.38
2024-05-09T07:18:54.871Z,59.52
2024-05-09T07:19:54.617Z,59.58
2024-05-09T07:20:54.610Z,62.14
2024-05-09T07:21:54.549Z,61.31
2024-05-09T07:22:54.567Z,61.18
2024-05-09T07:23:54.596Z,60.88
2024-05-09T07:24:54.532Z,61.08
2024-05-09T07:25:54.630Z,59.82
2024-05-09T07:26:54.484Z,60.25
2024-05-09T07:27:54.488Z,60.85
2024-05-09T07:28:54.520Z,59.79
2024-05-09T07:29:54.460Z,60.02
2024-05-09T07:30:54.455Z,60.55
2024-05-09T07:31:54.450Z,59.69
2024-05-09T07:32:54.530Z,58.99
2024-05-09T07:33:54.503Z,60.77
2024-05-09T07:34:54.441Z,59.66
2024-05-09T07:35:54.376Z,57.58
2024-05-09T07:36:54.345Z,56.66
2024-05-09T07:37:54.496Z,57.24
2024-05-09T07:38:54.334Z,57.41
2024-05-09T07:39:54.345Z,56.76
2024-05-09T07:40:54.370Z,55.71
2024-05-09T07:41:54.276Z,53.96
2024-05-09T07:42:54.300Z,54.79
2024-05-09T07:43:54.370Z,54.58
2024-05-09T07:44:55.538Z,55.11
2024-05-09T07:45:56.336Z,55.38
2024-05-09T07:48:13.757Z,56.18
2024-05-09T07:49:44.023Z,55.88
2024-05-09T07:50:35.469Z,56.29
2024-05-09T07:52:37.913Z,55.48
2024-05-09T07:53:57.107Z,52.14
2024-05-09T07:54:55.262Z,54.28
2024-05-09T07:55:54.303Z,55.36
2024-05-09T07:56:54.638Z,55.86
2024-05-09T07:57:54.819Z,54.66
2024-05-09T07:58:54.580Z,54.83
2024-05-09T07:59:54.032Z,54.08
2024-05-09T08:00:54.114Z,52.51
2024-05-09T08:01:54.104Z,52.99
2024-05-09T08:02:54.060Z,51.82
2024-05-09T08:03:54.944Z,51.97
2024-05-09T08:04:54.050Z,52.67
2024-05-09T08:05:54.025Z,54.38
2024-05-09T08:06:54.017Z,52.84
2024-05-09T08:07:53.953Z,51.77
2024-05-09T08:08:53.989Z,53.78
2024-05-09T08:09:53.970Z,53.09
2024-05-09T08:10:53.990Z,51.84
2024-05-09T08:11:54.078Z,52.02
2024-05-09T08:12:54.005Z,52.62
2024-05-09T08:13:53.882Z,51.79
2024-05-09T08:14:53.835Z,52.12
2024-05-09T08:15:53.875Z,51.84
2024-05-09T08:16:53.915Z,51.79
2024-05-09T08:17:53.920Z,50.58
2024-05-09T08:18:53.890Z,51.22
2024-05-09T08:19:53.797Z,50.80
2024-05-09T08:20:53.788Z,50.93
2024-05-09T08:21:53.778Z,51.03
2024-05-09T08:22:53.752Z,51.62
2024-05-09T08:23:53.740Z,50.63
2024-05-09T08:24:53.765Z,50.90
2024-05-09T08:25:53.706Z,52.47
2024-05-09T08:26:53.699Z,49.56
2024-05-09T08:27:53.733Z,50.33
2024-05-09T08:28:53.661Z,49.91
2024-05-09T08:29:53.734Z,49.43
2024-05-09T08:30:53.760Z,51.87
2024-05-09T08:31:53.714Z,52.74
2024-05-09T08:32:53.722Z,50.33
2024-05-09T08:33:53.742Z,51.27
2024-05-09T08:34:53.672Z,53.59
2024-05-09T08:35:53.597Z,53.39
2024-05-09T08:36:54.199Z,51.47
2024-05-09T08:37:53.669Z,51.35
2024-05-09T08:38:53.535Z,51.75
2024-05-09T08:39:54.220Z,50.90
2024-05-09T08:40:53.567Z,50.53
2024-05-09T08:41:53.507Z,48.37
2024-05-09T08:42:53.538Z,48.96
2024-05-09T08:43:53.491Z,49.33
2024-05-09T08:44:53.511Z,50.57
2024-05-09T08:45:54.230Z,52.49
2024-05-09T08:46:53.453Z,54.49
2024-05-09T08:47:53.458Z,53.19
2024-05-09T08:48:53.651Z,54.54
2024-05-09T08:49:53.446Z,54.86
2024-05-09T08:50:53.173Z,56.09
2024-05-09T08:51:53.423Z,56.48
2024-05-09T08:52:53.355Z,57.63
2024-05-09T08:53:53.343Z,56.82
2024-05-09T08:54:53.430Z,56.87
2024-05-09T08:55:53.323Z,57.40
2024-05-09T08:56:54.514Z,55.14
2024-05-09T08:57:52.658Z,52.84
2024-05-09T08:58:53.278Z,54.94
2024-05-09T08:59:53.280Z,55.32
2024-05-09T09:00:53.334Z,56.24
2024-05-09T09:01:53.331Z,54.32
2024-05-09T09:02:53.230Z,54.57
2024-05-09T09:03:53.394Z,55.42
2024-05-09T09:04:53.280Z,56.20
2024-05-09T09:05:53.354Z,57.39
2024-05-09T09:06:54.876Z,56.20
2024-05-09T09:07:53.228Z,54.44
2024-05-09T09:08:52.870Z,54.14
2024-05-09T09:09:53.336Z,54.80
2024-05-09T09:10:53.196Z,55.63
2024-05-09T09:11:53.174Z,55.10
2024-05-09T09:12:53.107Z,54.32
2024-05-09T09:13:53.092Z,54.02
2024-05-09T09:14:53.734Z,53.30
2024-05-09T09:15:52.872Z,53.85
2024-05-09T09:16:52.502Z,53.52
2024-05-09T09:17:53.051Z,52.22
2024-05-09T09:18:53.326Z,51.34
2024-05-09T09:19:53.065Z,52.32
2024-05-09T09:20:52.794Z,54.62
2024-05-09T09:21:53.018Z,55.68
2024-05-09T09:22:52.564Z,56.18
2024-05-09T09:23:52.996Z,56.08
2024-05-09T09:24:52.986Z,56.61
2024-05-09T09:25:52.916Z,57.44
2024-05-09T09:26:52.934Z,56.13
2024-05-09T09:27:52.951Z,55.63
2024-05-09T09:28:52.336Z,54.58
2024-05-09T09:29:52.355Z,55.05
2024-05-09T09:30:52.969Z,54.77
2024-05-09T09:31:52.462Z,52.52
2024-05-09T09:32:52.593Z,49.80
2024-05-09T09:33:52.708Z,47.49
2024-05-09T09:34:52.090Z,46.27
2024-05-09T09:35:52.037Z,43.96
2024-05-09T09:36:52.874Z,43.16
2024-05-09T09:37:52.011Z,43.30
2024-05-09T09:38:52.020Z,43.90
2024-05-09T09:39:52.033Z,44.49
2024-05-09T09:40:52.083Z,43.68
2024-05-09T09:41:52.015Z,44.24
2024-05-09T09:42:52.794Z,46.56
2024-05-09T09:43:52.062Z,48.77
2024-05-09T09:45:01.868Z,50.26
2024-05-09T09:45:54.046Z,49.19
2024-05-09T09:46:52.052Z,48.37
2024-05-09T09:47:52.161Z,49.52
2024-05-09T09:48:51.949Z,50.74
2024-05-09T09:49:52.157Z,50.71
2024-05-09T09:50:52.706Z,52.24
2024-05-09T09:51:52.608Z,50.34
2024-05-09T09:52:52.555Z,47.99
2024-05-09T09:53:51.799Z,49.04
2024-05-09T09:54:52.553Z,49.54
2024-05-09T09:55:52.553Z,49.97
2024-05-09T09:56:51.836Z,48.27
2024-05-09T09:57:51.883Z,48.11
2024-05-09T09:58:52.482Z,49.01
2024-05-09T09:59:51.838Z,51.56
2024-05-09T10:00:51.906Z,51.82
2024-05-09T10:01:52.537Z,50.96
2024-05-09T10:02:53.174Z,50.46
2024-05-09T10:03:52.574Z,49.29
2024-05-09T10:04:52.547Z,49.07
2024-05-09T10:05:52.460Z,50.39
2024-05-09T10:06:51.773Z,49.21
2024-05-09T10:07:52.349Z,49.61
2024-05-09T10:08:51.636Z,49.39
2024-05-09T10:09:51.657Z,47.87
2024-05-09T10:10:51.803Z,45.95
2024-05-09T10:11:54.416Z,46.38
2024-05-09T10:12:53.410Z,46.88
2024-05-09T10:13:52.287Z,46.50
2024-05-09T10:14:51.611Z,46.91
2024-05-09T10:15:51.960Z,46.76
2024-05-09T10:16:51.485Z,45.79
2024-05-09T10:17:52.376Z,45.18
2024-05-09T10:18:52.650Z,43.49
2024-05-09T10:19:51.813Z,43.63
2024-05-09T10:20:52.190Z,46.37
2024-05-09T10:21:51.687Z,48.34
2024-05-09T10:22:51.504Z,48.86
2024-05-09T10:23:51.632Z,49.29
2024-05-09T10:24:52.176Z,50.21
2024-05-09T10:25:51.628Z,50.34
2024-05-09T10:26:51.629Z,51.44
2024-05-09T10:27:52.186Z,50.63
2024-05-09T10:28:51.570Z,50.94
2024-05-09T10:29:51.637Z,51.12
2024-05-09T10:30:52.185Z,50.54
2024-05-09T10:31:51.719Z,50.92
2024-05-09T10:32:51.688Z,51.44
2024-05-09T10:33:52.642Z,50.62
2024-05-09T10:34:51.548Z,50.92
2024-05-09T10:35:51.631Z,50.26
2024-05-09T10:36:53.272Z,48.57
2024-05-09T10:37:51.632Z,45.71
2024-05-09T10:38:51.634Z,45.64
2024-05-09T10:39:51.708Z,43.86
2024-05-09T10:40:51.675Z,43.01
2024-05-09T10:41:51.642Z,41.69
2024-05-09T10:42:51.915Z,40.19
2024-05-09T10:43:51.770Z,40.20
2024-05-09T10:44:51.671Z,41.74
2024-05-09T10:45:51.776Z,41.74
2024-05-09T10:46:51.116Z,42.15
2024-05-09T10:47:52.117Z,41.14
2024-05-09T10:48:51.187Z,42.11
2024-05-09T10:49:51.889Z,43.80
2024-05-09T10:50:51.791Z,44.27
2024-05-09T10:51:51.827Z,43.38
2024-05-09T10:52:51.322Z,42.69
2024-05-09T10:53:51.749Z,42.97
2024-05-09T10:54:51.090Z,41.47
2024-05-09T10:55:51.714Z,42.07
2024-05-09T10:56:51.615Z,42.49
2024-05-09T10:57:51.767Z,41.34
2024-05-09T10:58:50.910Z,41.20
2024-05-09T10:59:39.067Z,43.77
2024-05-09T11:00:53.087Z,44.21
2024-05-09T11:01:53.015Z,46.57
2024-05-09T11:02:51.043Z,46.67
2024-05-09T11:03:51.184Z,46.89
2024-05-09T11:04:51.820Z,47.19
2024-05-09T11:05:52.349Z,46.80
2024-05-09T11:06:50.856Z,47.27
2024-05-09T11:07:50.807Z,47.57
2024-05-09T11:08:52.786Z,47.19
2024-05-09T11:09:50.881Z,45.48
2024-05-09T11:10:52.955Z,44.99
2024-05-09T11:11:51.550Z,44.15
2024-05-09T11:12:50.807Z,42.53
2024-05-09T11:13:50.735Z,42.01
2024-05-09T11:14:51.392Z,42.31
2024-05-09T11:15:51.533Z,44.11
2024-05-09T11:16:51.487Z,45.95
2024-05-09T11:17:50.837Z,46.45
2024-05-09T11:18:51.616Z,44.69
2024-05-09T11:19:52.794Z,43.07
2024-05-09T11:20:51.487Z,44.61
2024-05-09T11:21:52.702Z,44.63
2024-05-09T11:22:52.584Z,45.05
2024-05-09T11:23:50.838Z,45.59
2024-05-09T11:24:52.842Z,46.54
2024-05-09T11:25:51.332Z,46.56
2024-05-09T11:26:50.694Z,46.96
2024-05-09T11:27:51.420Z,45.69
2024-05-09T11:28:51.276Z,44.73
2024-05-09T11:29:50.780Z,43.57
2024-05-09T11:30:51.318Z,42.47
2024-05-09T11:31:51.259Z,41.96
2024-05-09T11:32:51.324Z,41.52
2024-05-09T11:33:51.288Z,42.33
2024-05-09T11:34:51.217Z,42.87
2024-05-09T11:35:51.212Z,43.39
2024-05-09T11:36:51.232Z,43.63
2024-05-09T11:37:51.169Z,45.07
2024-05-09T11:38:51.136Z,44.85
2024-05-09T11:39:51.155Z,43.41
2024-05-09T11:40:51.813Z,44.95
2024-05-09T11:41:51.155Z,45.33
2024-05-09T11:42:53.488Z,45.31
2024-05-09T11:43:51.064Z,44.09
2024-05-09T11:44:51.078Z,42.55
2024-05-09T11:45:51.737Z,43.27
2024-05-09T11:46:50.290Z,44.73
2024-05-09T11:47:52.309Z,45.50
2024-05-09T11:48:52.309Z,46.44
2024-05-09T11:49:52.253Z,46.01
2024-05-09T11:50:52.232Z,44.53
2024-05-09T11:51:52.219Z,43.57
2024-05-09T11:52:52.193Z,43.33
2024-05-09T11:53:52.233Z,41.50
2024-05-09T11:54:52.192Z,40.86
2024-05-09T11:55:52.174Z,41.55
2024-05-09T11:56:50.934Z,40.76
2024-05-09T11:57:52.188Z,41.14
2024-05-09T11:58:52.103Z,42.13
2024-05-09T11:59:52.077Z,43.25
2024-05-09T12:00:50.993Z,42.11
2024-05-09T12:01:52.104Z,41.91
2024-05-09T12:02:52.130Z,42.53
2024-05-09T12:03:52.361Z,41.91
2024-05-09T12:04:52.092Z,41.87
2024-05-09T12:05:50.872Z,40.58
2024-05-09T12:06:50.832Z,39.76
2024-05-09T12:07:50.752Z,40.66
2024-05-09T12:08:50.769Z,39.67
2024-05-09T12:09:50.776Z,40.54
2024-05-09T12:10:50.892Z,41.60
2024-05-09T12:11:51.449Z,42.21
2024-05-09T12:12:51.387Z,41.99
2024-05-09T12:13:50.698Z,42.99
2024-05-09T12:14:50.702Z,42.15
2024-05-09T12:15:50.693Z,42.29
2024-05-09T12:16:51.378Z,42.11
2024-05-09T12:17:51.149Z,41.00
2024-05-09T12:18:50.709Z,41.00
2024-05-09T12:19:50.616Z,40.86
2024-05-09T12:20:50.634Z,39.83
2024-05-09T12:21:50.662Z,39.95
2024-05-09T12:22:50.585Z,40.20
2024-05-09T12:23:50.565Z,38.42
2024-05-09T12:24:50.601Z,39.17
2024-05-09T12:25:50.520Z,39.31
2024-05-09T12:26:50.506Z,40.46
2024-05-09T12:27:50.537Z,40.46
2024-05-09T12:28:51.135Z,39.67
2024-05-09T12:29:50.487Z,41.20
2024-05-09T12:30:51.225Z,40.95
2024-05-09T12:31:50.495Z,41.96
2024-05-09T12:32:50.517Z,42.95
2024-05-09T12:33:50.532Z,42.21
2024-05-09T12:34:50.417Z,42.37
2024-05-09T12:35:51.158Z,41.24
2024-05-09T12:36:50.479Z,40.60
2024-05-09T12:37:50.378Z,39.41
2024-05-09T12:38:50.365Z,39.67
2024-05-09T12:39:50.392Z,38.85
2024-05-09T12:40:50.448Z,38.78
2024-05-09T12:41:50.330Z,40.41
2024-05-09T12:42:50.364Z,39.43
2024-05-09T12:43:50.962Z,39.41
2024-05-09T12:44:50.299Z,39.61
2024-05-09T12:45:50.289Z,40.76
2024-05-09T12:46:50.269Z,41.97
2024-05-09T12:47:50.296Z,42.11
2024-05-09T12:48:51.050Z,41.28
2024-05-09T12:49:50.923Z,41.60
2024-05-09T12:50:50.253Z,42.19
2024-05-09T12:51:50.208Z,41.52
2024-05-09T12:52:50.184Z,41.91
2024-05-09T12:53:50.166Z,41.60
2024-05-09T12:54:50.153Z,41.38